Lewiston Nez Perce County Airport
KLWS : now visible

Airfield :











YOU CAN JOIN US ON...

 
LOGIN :

Register | Disclaimer

   EN    FR    IT 

 









Legend :    VFR   Marginal VFR   IFR   Intensive IFR   Very Intensive IFR
Visi :
Ceiling :
>= 8 km
>= 3000ft
5 to 8 km
1000 to 3000 ft
1500m to 5 km
500 to 1000 ft
800 to 1500m
200 to 500 ft
< 800m
< 200 ft
Symbols :   Thunderstorms  Fog  Heavy snow  Heavy precipitations  Wind > 20 kt







- Airport Elevation : 1442 ft
- IATA code : LWS


KLWS - Lewiston Nez Perce County

CURRENT METAR :
  • 202056Z 10SM FEW047 BKN055 OVC090 19/08 A2999 RMK AO2 SLP152 T01940078 56007

EXPIRED METARs :
  • 201956Z 10SM FEW110 19/08 A2999 RMK AO2 SLP152 T01890083
  • 201856Z 32004KT 10SM CLR 17/10 A3000 RMK AO2 SLP156 T01720100

TAF KLWS
Valid from the 20 at 18:00 until the 21 at 18:00 UTC


201739Z 2018/2118 00000KT P6SM FEW060 OVC070
FM202000 19006KT P6SM VCSH BKN070 OVC100
FM210300 18005KT P6SM BKN070
FM210800 15003KT P6SM BKN250
No reported NOTAMs for that airfield.



MET'MAP, your aeronautical weather chart ! - Copyright ORBIFLY December 2007 - Disclaimer

ORBIFLY MET'MAP TEAM :

Programming & Development : Alexandra Zaïnal
Concept & Development : Baudouin d'Aumeries
Co-Development & Prog : Marc-Olivier Méhu
Technical & hardware support : Manuel Goepfert

Contact : metmap@orbifly.com




SOURCES & CREDITS :

   NOAA       Earth
Advisory